Time;durP1;ratioP1;P1;durP2;ratioP2;P2;SDS_P1;SDS_P2;PMS_P1;PMS_P2;Temp;Humidity;BMP_temperature;BMP_pressure;BME280_temperature;BME280_humidity;BME280_pressure;Samples;Min_cycle;Max_cycle;Signal;HPM_P1;HPM_P2
2022/04/02 00:01:52;;;;;;;18.98;15.07;;;4.90;99.90;;;;;;5053053;28;20047;-70
2022/04/02 00:04:17;;;;;;;18.63;15.18;;;4.90;99.90;;;;;;5053200;28;20080;-69
2022/04/02 00:06:43;;;;;;;17.88;15.27;;;4.90;99.90;;;;;;5054454;28;20532;-70
2022/04/02 00:09:08;;;;;;;17.45;15.55;;;4.80;99.90;;;;;;5050884;28;20036;-70
2022/04/02 00:11:34;;;;;;;16.42;14.35;;;4.70;99.90;;;;;;5060806;28;20090;-70
2022/04/02 00:14:00;;;;;;;16.45;14.75;;;4.70;99.90;;;;;;5054714;28;20171;-70
2022/04/02 00:16:26;;;;;;;15.93;14.23;;;4.60;99.90;;;;;;5055422;28;20041;-71
2022/04/02 00:18:51;;;;;;;18.00;16.00;;;4.60;99.90;;;;;;5056188;28;20118;-71
2022/04/02 00:21:18;;;;;;;16.80;14.63;;;4.60;99.90;;;;;;5042682;28;20087;-70
2022/04/02 00:23:44;;;;;;;17.40;15.57;;;4.50;99.90;;;;;;5058688;28;20063;-70
2022/04/02 00:26:12;;;;;;;17.23;15.02;;;4.40;99.90;;;;;;5042136;28;20501;-70
2022/04/02 00:28:41;;;;;;;17.63;14.80;;;4.40;99.90;;;;;;5050772;28;20496;-70
2022/04/02 00:31:12;;;;;;;15.45;13.60;;;4.40;99.90;;;;;;5055868;28;20075;-71
2022/04/02 00:33:38;;;;;;;16.98;13.85;;;4.40;99.90;;;;;;5054923;28;20031;-71
2022/04/02 00:36:05;;;;;;;16.25;14.55;;;4.40;99.90;;;;;;5054200;28;20047;-71
2022/04/02 00:38:31;;;;;;;18.70;16.02;;;4.40;99.90;;;;;;5053988;28;20387;-71
2022/04/02 00:40:57;;;;;;;17.33;15.48;;;4.50;99.90;;;;;;5056638;28;20044;-71
2022/04/02 00:43:31;;;;;;;16.52;14.85;;;4.40;99.90;;;;;;5057470;28;20049;-71
2022/04/02 00:45:59;;;;;;;18.67;14.77;;;4.40;99.90;;;;;;5054512;28;20098;-71
2022/04/02 00:48:27;;;;;;;17.30;15.45;;;4.30;99.90;;;;;;5057454;28;20037;-71
2022/04/02 00:50:56;;;;;;;15.38;13.77;;;4.30;99.90;;;;;;5051103;28;20095;-71
2022/04/02 00:53:30;;;;;;;16.25;14.52;;;4.30;99.90;;;;;;5052241;28;20039;-70
2022/04/02 00:55:56;;;;;;;14.85;13.20;;;4.20;99.90;;;;;;5049895;28;20040;-71
2022/04/02 00:58:22;;;;;;;13.63;12.25;;;4.30;99.90;;;;;;5055920;28;20087;-70
2022/04/02 01:00:48;;;;;;;12.93;11.52;;;4.40;99.90;;;;;;5050667;28;20148;-71
2022/04/02 01:03:16;;;;;;;15.80;13.15;;;4.40;99.90;;;;;;5049947;28;20048;-72
2022/04/02 01:05:42;;;;;;;14.25;12.75;;;4.50;99.90;;;;;;5052097;28;20039;-71
2022/04/02 01:08:08;;;;;;;13.57;11.82;;;4.40;99.90;;;;;;5050014;28;20560;-71
2022/04/02 01:10:42;;;;;;;14.20;12.07;;;4.40;99.90;;;;;;5056913;28;20048;-71
2022/04/02 01:13:09;;;;;;;13.88;12.35;;;4.50;99.90;;;;;;5049426;28;20032;-71
2022/04/02 01:15:35;;;;;;;13.30;11.90;;;4.60;99.90;;;;;;5031674;28;20032;-71
2022/04/02 01:18:01;;;;;;;13.55;12.00;;;4.70;99.90;;;;;;5057282;28;20036;-70
2022/04/02 01:20:30;;;;;;;12.93;11.63;;;4.70;99.90;;;;;;5049492;28;20044;-71
2022/04/02 01:22:57;;;;;;;13.20;11.65;;;4.70;99.90;;;;;;5054526;28;20360;-71
2022/04/02 01:25:23;;;;;;;13.43;12.10;;;4.80;99.90;;;;;;5054521;28;20584;-71
2022/04/02 01:27:48;;;;;;;14.07;12.68;;;4.80;99.90;;;;;;5048111;28;20035;-71
2022/04/02 01:30:15;;;;;;;13.73;12.32;;;5.00;99.90;;;;;;5047892;28;20043;-71
2022/04/02 01:32:42;;;;;;;13.85;12.27;;;5.20;99.90;;;;;;5052288;28;20119;-71
2022/04/02 01:35:09;;;;;;;13.45;12.05;;;5.30;99.90;;;;;;5053383;28;20509;-71
2022/04/02 01:37:35;;;;;;;13.77;12.48;;;5.40;99.90;;;;;;5053155;28;20505;-71
2022/04/02 01:40:04;;;;;;;12.75;11.45;;;5.50;99.90;;;;;;5052784;28;20542;-71
2022/04/02 01:42:29;;;;;;;13.77;12.38;;;5.60;99.90;;;;;;5054559;28;20033;-71
2022/04/02 01:44:55;;;;;;;14.05;11.98;;;5.70;99.80;;;;;;5054831;28;20105;-71
2022/04/02 01:47:21;;;;;;;13.38;12.02;;;5.60;99.80;;;;;;5054424;28;20044;-71
2022/04/02 01:49:48;;;;;;;13.23;11.43;;;5.50;99.90;;;;;;5051743;28;20045;-71
2022/04/02 01:52:16;;;;;;;13.25;11.93;;;5.50;99.90;;;;;;5053614;28;20040;-71
2022/04/02 01:54:46;;;;;;;13.23;11.82;;;5.60;99.90;;;;;;5049792;28;20033;-71
2022/04/02 01:57:12;;;;;;;13.10;11.80;;;5.70;99.80;;;;;;5054225;28;20106;-70
2022/04/02 01:59:40;;;;;;;12.60;11.30;;;5.70;99.70;;;;;;5053226;28;20551;-71
2022/04/02 02:02:08;;;;;;;12.57;11.30;;;5.70;99.60;;;;;;5044834;28;20045;-71
2022/04/02 02:04:34;;;;;;;13.75;12.27;;;5.60;99.30;;;;;;5047358;28;20402;-71
2022/04/02 02:07:00;;;;;;;13.93;12.43;;;5.50;99.60;;;;;;5049755;28;20396;-71
2022/04/02 02:09:26;;;;;;;14.27;12.32;;;5.50;99.80;;;;;;5048678;28;20033;-71
2022/04/02 02:11:52;;;;;;;13.38;11.98;;;5.40;99.70;;;;;;5047262;28;20045;-71
2022/04/02 02:14:17;;;;;;;14.80;12.45;;;5.20;99.80;;;;;;5045107;28;20036;-71
2022/04/02 02:16:43;;;;;;;14.70;13.20;;;5.00;99.90;;;;;;5046823;28;20604;-71
2022/04/02 02:19:09;;;;;;;14.23;12.30;;;4.90;99.90;;;;;;5045198;28;20060;-71
2022/04/02 02:21:35;;;;;;;14.40;11.77;;;4.90;99.90;;;;;;5043820;28;20515;-71
2022/04/02 02:24:00;;;;;;;13.82;12.43;;;4.80;99.90;;;;;;5050147;28;20507;-71
2022/04/02 02:26:26;;;;;;;14.30;12.07;;;4.70;99.90;;;;;;5048135;28;20045;-71
2022/04/02 02:28:52;;;;;;;14.25;11.80;;;4.70;99.90;;;;;;5046152;28;20521;-71
2022/04/02 02:31:17;;;;;;;12.25;11.07;;;4.70;99.90;;;;;;5029860;28;20531;-71
2022/04/02 02:36:27;;;;;;;12.65;11.20;;;4.60;99.90;;;;;;5047543;28;20180;-71
2022/04/02 02:38:53;;;;;;;13.63;11.20;;;4.50;99.90;;;;;;5034775;28;20045;-71
2022/04/02 02:41:20;;;;;;;13.32;11.93;;;4.50;99.90;;;;;;5050116;28;20709;-71
2022/04/02 02:43:45;;;;;;;13.77;12.10;;;4.40;99.90;;;;;;5046472;28;20037;-71
2022/04/02 02:46:17;;;;;;;15.32;12.20;;;4.40;99.90;;;;;;5043514;28;20583;-71
2022/04/02 02:48:43;;;;;;;13.18;11.73;;;4.40;99.90;;;;;;5045076;28;20562;-71
2022/04/02 02:51:09;;;;;;;15.23;13.05;;;4.40;99.90;;;;;;5052107;28;20055;-71
2022/04/02 02:53:35;;;;;;;20.48;16.73;;;4.50;99.90;;;;;;5049718;28;20079;-71
2022/04/02 02:56:01;;;;;;;14.38;12.88;;;4.60;99.90;;;;;;5043833;28;20045;-71
2022/04/02 02:58:26;;;;;;;13.75;11.82;;;4.70;99.90;;;;;;5042019;28;20041;-71
2022/04/02 03:00:52;;;;;;;15.60;12.27;;;4.60;99.90;;;;;;5045015;28;20044;-71
2022/04/02 03:03:18;;;;;;;13.48;11.60;;;4.50;99.90;;;;;;5047260;28;20845;-71
2022/04/02 03:05:44;;;;;;;14.68;12.73;;;4.40;99.90;;;;;;5048129;28;20034;-71
2022/04/02 03:08:09;;;;;;;13.88;12.02;;;4.30;99.90;;;;;;5044603;28;20094;-71
2022/04/02 03:10:36;;;;;;;14.57;12.90;;;4.20;99.90;;;;;;5050840;28;20459;-71
2022/04/02 03:13:02;;;;;;;19.83;16.25;;;4.20;99.90;;;;;;5048215;28;20087;-70
2022/04/02 03:15:28;;;;;;;21.38;17.23;;;4.40;99.90;;;;;;5050886;28;20032;-71
2022/04/02 03:18:01;;;;;;;18.20;15.95;;;4.50;99.90;;;;;;5054426;28;20524;-70
2022/04/02 03:20:28;;;;;;;18.17;16.17;;;4.70;99.90;;;;;;5049690;28;20338;-71
2022/04/02 03:22:54;;;;;;;14.40;12.90;;;4.60;99.90;;;;;;5049783;28;20039;-71
2022/04/02 03:25:21;;;;;;;13.77;12.00;;;4.70;99.90;;;;;;5053686;28;20691;-70
2022/04/02 03:27:47;;;;;;;15.02;13.43;;;4.70;99.90;;;;;;5049040;28;20540;-70
2022/04/02 03:30:16;;;;;;;13.70;12.23;;;4.70;99.90;;;;;;5047757;28;20405;-70
2022/04/02 03:32:42;;;;;;;13.20;11.48;;;4.90;99.90;;;;;;5056653;28;20032;-71
2022/04/02 03:35:08;;;;;;;13.25;11.95;;;4.90;99.90;;;;;;5055128;28;20083;-71
2022/04/02 03:37:39;;;;;;;12.10;10.88;;;4.90;99.90;;;;;;5057886;28;20068;-71
2022/04/02 03:40:10;;;;;;;12.90;11.57;;;4.90;99.80;;;;;;5054657;28;20052;-71
2022/04/02 03:42:37;;;;;;;12.50;11.20;;;4.80;99.90;;;;;;5055727;28;20091;-71
2022/04/02 03:45:07;;;;;;;11.98;10.75;;;4.90;99.90;;;;;;5054252;28;20400;-71
2022/04/02 03:47:33;;;;;;;16.25;13.20;;;5.00;99.90;;;;;;5055556;28;20090;-71
2022/04/02 03:49:59;;;;;;;15.77;13.38;;;5.00;99.90;;;;;;5053143;28;20673;-70
2022/04/02 03:52:25;;;;;;;13.88;11.95;;;5.00;99.90;;;;;;5046340;28;20048;-70
2022/04/02 03:54:51;;;;;;;13.77;11.50;;;5.10;99.90;;;;;;5056739;28;20056;-71
2022/04/02 03:57:17;;;;;;;13.35;11.93;;;5.20;99.80;;;;;;5051120;28;20159;-71
2022/04/02 03:59:44;;;;;;;13.80;12.40;;;5.20;99.70;;;;;;5053912;28;20040;-70
2022/04/02 04:02:10;;;;;;;15.73;14.00;;;5.20;99.80;;;;;;5058769;28;20029;-71
2022/04/02 04:04:37;;;;;;;13.85;12.40;;;5.10;99.90;;;;;;5054796;28;20037;-71
2022/04/02 04:07:03;;;;;;;14.75;13.25;;;4.90;99.90;;;;;;5055941;28;20119;-70
2022/04/02 04:09:29;;;;;;;19.88;14.77;;;4.80;99.90;;;;;;5055107;28;20041;-71
2022/04/02 04:11:55;;;;;;;15.32;13.38;;;4.70;99.90;;;;;;5059749;28;20662;-71
2022/04/02 04:14:22;;;;;;;14.93;13.05;;;4.60;99.90;;;;;;5057836;28;20036;-71
2022/04/02 04:16:48;;;;;;;14.95;13.35;;;4.50;99.90;;;;;;5056616;28;20044;-71
2022/04/02 04:19:14;;;;;;;16.75;14.27;;;4.40;99.90;;;;;;5059635;28;20027;-70
2022/04/02 04:21:40;;;;;;;15.25;12.90;;;4.30;99.90;;;;;;5053315;28;20151;-71
2022/04/02 04:24:07;;;;;;;31.13;26.90;;;4.30;99.90;;;;;;5054065;28;20040;-71
2022/04/02 04:26:33;;;;;;;19.77;17.67;;;4.40;99.90;;;;;;5053207;28;20052;-70
2022/04/02 04:28:59;;;;;;;25.77;20.25;;;4.50;99.90;;;;;;5057691;28;20037;-71
2022/04/02 04:31:25;;;;;;;61.10;32.25;;;4.50;99.90;;;;;;5056325;28;20532;-71
2022/04/02 04:33:51;;;;;;;36.40;24.67;;;4.60;99.90;;;;;;5053798;28;20060;-70
2022/04/02 04:36:24;;;;;;;17.83;14.45;;;4.70;99.90;;;;;;5056694;28;20080;-71
2022/04/02 04:38:51;;;;;;;15.23;13.52;;;4.90;99.90;;;;;;5054299;28;20048;-71
2022/04/02 04:41:17;;;;;;;15.50;13.88;;;4.90;99.90;;;;;;5058442;28;20017;-71
2022/04/02 04:43:47;;;;;;;18.25;16.42;;;4.80;99.90;;;;;;5054486;28;20067;-71
2022/04/02 04:46:17;;;;;;;25.77;23.10;;;5.00;99.90;;;;;;5058885;28;20029;-71
2022/04/02 04:48:43;;;;;;;23.40;21.10;;;5.00;99.90;;;;;;5051944;28;20049;-71
2022/04/02 04:51:11;;;;;;;29.90;26.88;;;5.10;99.90;;;;;;5059931;28;20043;-71
2022/04/02 04:53:37;;;;;;;15.30;13.70;;;5.20;99.90;;;;;;5057185;28;20108;-71
2022/04/02 04:56:04;;;;;;;17.15;15.15;;;5.20;99.70;;;;;;5058330;28;20528;-70
2022/04/02 04:58:29;;;;;;;15.80;14.13;;;5.00;99.90;;;;;;5053018;28;20102;-71
2022/04/02 05:00:57;;;;;;;15.13;13.52;;;5.10;99.90;;;;;;5054269;28;20041;-70
2022/04/02 05:03:23;;;;;;;15.25;13.52;;;5.20;99.90;;;;;;5059962;28;20589;-71
2022/04/02 05:05:49;;;;;;;16.35;13.75;;;5.20;99.80;;;;;;5056295;28;20472;-71
2022/04/02 05:08:14;;;;;;;25.08;14.55;;;5.20;99.70;;;;;;5052858;28;20041;-71
2022/04/02 05:10:43;;;;;;;20.45;15.02;;;5.20;99.80;;;;;;5053348;28;20051;-71
2022/04/02 05:13:12;;;;;;;16.33;14.52;;;5.30;99.90;;;;;;5049839;28;20045;-70
2022/04/02 05:15:40;;;;;;;16.73;14.77;;;5.30;99.40;;;;;;5048230;28;20045;-71
2022/04/02 05:18:06;;;;;;;17.60;15.10;;;5.30;99.70;;;;;;5050775;28;20072;-71
2022/04/02 05:20:31;;;;;;;16.60;14.90;;;5.30;99.60;;;;;;5053232;28;20402;-70
2022/04/02 05:22:57;;;;;;;16.05;13.35;;;5.20;99.80;;;;;;5053409;28;20044;-71
2022/04/02 05:25:24;;;;;;;16.92;14.90;;;5.20;99.90;;;;;;5044275;28;20036;-71
2022/04/02 05:27:49;;;;;;;18.33;15.05;;;5.30;99.70;;;;;;5055088;28;20033;-71
2022/04/02 05:30:15;;;;;;;17.95;13.68;;;5.40;99.50;;;;;;5049529;28;20041;-70
2022/04/02 05:32:41;;;;;;;19.67;16.58;;;5.30;99.40;;;;;;5052961;28;20086;-70
2022/04/02 05:35:07;;;;;;;17.27;15.45;;;5.40;99.60;;;;;;5050516;28;20048;-70
2022/04/02 05:37:33;;;;;;;18.52;14.85;;;5.40;99.40;;;;;;5049339;28;20056;-70
2022/04/02 05:39:58;;;;;;;17.27;14.18;;;5.50;99.60;;;;;;5052327;28;20032;-70
2022/04/02 05:42:26;;;;;;;16.25;14.50;;;5.50;99.80;;;;;;5050100;28;20592;-70
2022/04/02 05:44:53;;;;;;;22.80;14.68;;;5.50;99.80;;;;;;5051178;28;20497;-71
2022/04/02 05:47:19;;;;;;;34.38;15.50;;;5.50;99.80;;;;;;5050008;28;20663;-71
2022/04/02 05:49:52;;;;;;;16.80;15.00;;;5.50;99.90;;;;;;5038006;28;20043;-70
2022/04/02 05:52:18;;;;;;;17.17;15.15;;;5.60;99.60;;;;;;5050753;28;20043;-71
2022/04/02 05:54:44;;;;;;;15.95;14.35;;;5.50;99.60;;;;;;5046782;28;20060;-71
2022/04/02 05:57:09;;;;;;;16.52;14.75;;;5.40;99.80;;;;;;5054077;28;20041;-71
2022/04/02 05:59:35;;;;;;;16.35;14.00;;;5.40;99.70;;;;;;5046826;28;20476;-70
2022/04/02 06:02:01;;;;;;;21.55;16.88;;;5.40;99.70;;;;;;5056511;28;20187;-71
2022/04/02 06:04:28;;;;;;;19.95;17.30;;;5.40;99.80;;;;;;5050039;28;20723;-71
2022/04/02 06:06:54;;;;;;;18.98;16.77;;;5.40;99.80;;;;;;5058951;28;20493;-70
2022/04/02 06:09:19;;;;;;;18.20;16.30;;;5.40;99.70;;;;;;5052058;28;20041;-71
2022/04/02 06:11:45;;;;;;;17.73;14.73;;;5.30;99.80;;;;;;5051449;28;20044;-69
2022/04/02 06:14:13;;;;;;;18.20;14.75;;;5.30;99.90;;;;;;5051161;28;20099;-69
2022/04/02 06:16:39;;;;;;;15.82;14.23;;;5.30;99.90;;;;;;5060030;28;20056;-69
2022/04/02 06:19:05;;;;;;;16.73;14.98;;;5.30;99.90;;;;;;5051392;28;20124;-70
2022/04/02 06:21:31;;;;;;;17.13;15.27;;;5.40;99.70;;;;;;5054250;28;20123;-69
2022/04/02 06:23:57;;;;;;;16.92;14.60;;;5.40;99.60;;;;;;5046685;28;20448;-69
2022/04/02 06:26:22;;;;;;;16.25;14.55;;;5.40;99.80;;;;;;5045098;28;20044;-69
2022/04/02 06:28:48;;;;;;;16.90;14.93;;;5.50;99.70;;;;;;5050870;28;20037;-69
2022/04/02 06:31:14;;;;;;;17.13;13.75;;;5.60;99.60;;;;;;5046055;28;20033;-69
2022/04/02 06:33:39;;;;;;;15.45;13.90;;;5.60;99.30;;;;;;5048805;28;20049;-69
2022/04/02 06:36:07;;;;;;;17.45;15.55;;;5.60;99.30;;;;;;5051859;28;20060;-69
2022/04/02 06:38:34;;;;;;;17.33;15.55;;;5.60;99.30;;;;;;5052656;28;20033;-69
2022/04/02 06:41:00;;;;;;;17.75;15.70;;;5.70;99.20;;;;;;5054639;28;20105;-70
2022/04/02 06:43:25;;;;;;;19.08;16.95;;;5.60;99.20;;;;;;5048737;28;20041;-70
2022/04/02 06:45:51;;;;;;;17.55;15.70;;;5.60;99.60;;;;;;5052840;28;20097;-69
2022/04/02 06:48:17;;;;;;;18.58;16.52;;;5.60;99.40;;;;;;5046442;28;20237;-69
2022/04/02 06:50:43;;;;;;;21.48;18.55;;;5.40;99.60;;;;;;5056144;28;20814;-69
2022/04/02 06:53:09;;;;;;;23.90;21.05;;;5.30;99.90;;;;;;5054912;28;20045;-69
2022/04/02 06:55:35;;;;;;;21.52;18.02;;;5.30;99.90;;;;;;5058315;28;20374;-69
2022/04/02 06:58:01;;;;;;;19.55;16.15;;;;;;;;;;5052483;28;20044;-70
2022/04/02 07:00:27;;;;;;;18.67;16.73;;;5.50;99.90;;;;;;5046816;28;20044;-70
2022/04/02 07:02:53;;;;;;;19.40;17.15;;;5.40;99.90;;;;;;5028572;28;20052;-69
2022/04/02 07:05:19;;;;;;;20.02;17.85;;;5.40;99.90;;;;;;5044080;28;20048;-69
2022/04/02 07:07:46;;;;;;;30.05;21.02;;;5.30;99.90;;;;;;5038740;28;20642;-69
2022/04/02 07:10:13;;;;;;;42.45;26.20;;;5.20;99.90;;;;;;5046569;28;20067;-69
2022/04/02 07:12:39;;;;;;;28.77;20.13;;;5.10;99.90;;;;;;5051882;28;20445;-70
2022/04/02 07:15:06;;;;;;;34.63;22.13;;;5.00;99.90;;;;;;5040985;28;20832;-70
2022/04/02 07:17:32;;;;;;;24.63;19.25;;;4.90;99.90;;;;;;5055643;28;20052;-70
2022/04/02 07:20:02;;;;;;;18.00;16.10;;;4.90;99.90;;;;;;5053160;28;20120;-70
2022/04/02 07:22:28;;;;;;;17.77;15.75;;;4.80;99.90;;;;;;5058778;28;20056;-69
2022/04/02 07:24:55;;;;;;;19.85;15.98;;;4.70;99.90;;;;;;5044707;28;20039;-69
2022/04/02 07:27:27;;;;;;;22.80;18.52;;;4.70;99.90;;;;;;5053137;28;20068;-70
2022/04/02 07:29:54;;;;;;;17.08;15.27;;;4.80;99.90;;;;;;5045150;28;20435;-69
2022/04/02 07:32:20;;;;;;;18.20;15.20;;;4.70;99.90;;;;;;5046527;28;20472;-70
2022/04/02 07:34:46;;;;;;;17.40;15.57;;;4.60;99.90;;;;;;5055943;28;20068;-70
2022/04/02 07:37:23;;;;;;;18.92;16.60;;;4.50;99.90;;;;;;5026332;28;20158;-70
2022/04/02 07:40:00;;;;;;;21.52;16.95;;;4.60;99.90;;;;;;5049737;28;20048;-70
2022/04/02 07:42:49;;;;;;;21.13;17.00;;;4.90;99.90;;;;;;5050073;28;20040;-69
2022/04/02 07:45:20;;;;;;;22.05;17.65;;;5.20;99.90;;;;;;5053508;28;20385;-69
2022/04/02 07:47:55;;;;;;;21.83;18.48;;;5.10;99.90;;;;;;5051971;28;20040;-70
2022/04/02 07:50:23;;;;;;;24.75;20.23;;;5.00;99.90;;;;;;5051603;28;20033;-70
2022/04/02 07:52:51;;;;;;;23.63;19.45;;;5.20;99.90;;;;;;5046609;28;20033;-70
2022/04/02 07:55:19;;;;;;;22.95;19.90;;;5.50;99.90;;;;;;5053043;28;20149;-70
2022/04/02 07:57:47;;;;;;;22.98;20.27;;;5.60;99.90;;;;;;5050641;28;20060;-70
2022/04/02 08:00:14;;;;;;;19.25;17.15;;;5.60;99.90;;;;;;5056760;28;20045;-70
2022/04/02 08:02:43;;;;;;;22.27;17.60;;;5.60;99.90;;;;;;5053859;28;20071;-70
2022/04/02 08:05:14;;;;;;;25.13;17.70;;;5.30;99.90;;;;;;5042233;28;20094;-69
2022/04/02 08:07:49;;;;;;;17.70;15.73;;;5.20;99.90;;;;;;5056446;28;20032;-70
2022/04/02 08:10:16;;;;;;;17.67;15.43;;;5.10;99.90;;;;;;5056496;28;20023;-70
2022/04/02 08:12:43;;;;;;;18.67;16.45;;;5.00;99.90;;;;;;5053115;28;20036;-70
2022/04/02 08:15:12;;;;;;;17.67;15.35;;;5.10;99.90;;;;;;5051519;28;20029;-70
2022/04/02 08:17:39;;;;;;;17.25;14.15;;;5.20;99.90;;;;;;5048837;28;20048;-69
2022/04/02 08:20:06;;;;;;;18.65;15.50;;;5.20;99.90;;;;;;5053808;28;20059;-70
2022/04/02 08:22:32;;;;;;;18.00;15.00;;;5.00;99.90;;;;;;5056373;28;20047;-70
2022/04/02 08:24:58;;;;;;;19.27;16.27;;;4.80;99.90;;;;;;5048712;28;20033;-71
2022/04/02 08:27:52;;;;;;;28.55;17.90;;;4.90;99.90;;;;;;5052360;28;20033;-69
2022/04/02 08:30:39;;;;;;;31.08;25.52;;;5.00;99.90;;;;;;5057361;28;20036;-68
2022/04/02 08:33:28;;;;;;;23.13;19.45;;;5.40;99.90;;;;;;5052615;28;20095;-67
2022/04/02 08:36:06;;;;;;;22.00;18.95;;;5.60;99.90;;;;;;5053629;28;20020;-69
2022/04/02 08:38:58;;;;;;;21.50;17.80;;;5.90;99.90;;;;;;5054109;28;20045;-69
2022/04/02 08:41:42;;;;;;;26.90;21.17;;;6.00;99.90;;;;;;5040941;28;20052;-70
2022/04/02 08:44:14;;;;;;;26.10;20.95;;;6.00;99.90;;;;;;5053065;28;20036;-69
2022/04/02 08:46:58;;;;;;;26.77;20.77;;;6.10;99.90;;;;;;5048058;28;20028;-69
2022/04/02 08:49:36;;;;;;;27.08;22.23;;;6.20;99.90;;;;;;5050460;28;20051;-70
2022/04/02 08:52:42;;;;;;;29.20;22.83;;;6.20;99.90;;;;;;5055419;28;20098;-69
2022/04/02 08:55:17;;;;;;;26.60;23.05;;;6.20;99.90;;;;;;5016350;28;20078;-70
2022/04/02 08:58:13;;;;;;;21.33;19.05;;;5.90;99.90;;;;;;5051120;28;20040;-69
2022/04/02 09:00:42;;;;;;;24.88;21.40;;;5.60;99.90;;;;;;5053559;28;20040;-69
2022/04/02 09:03:44;;;;;;;21.63;19.42;;;5.50;99.90;;;;;;5052031;28;20033;-70
2022/04/02 09:06:23;;;;;;;24.13;21.55;;;5.40;99.90;;;;;;5046775;28;20032;-70
2022/04/02 09:09:15;;;;;;;26.10;23.35;;;5.20;99.90;;;;;;5052788;28;20035;-70
2022/04/02 09:12:11;;;;;;;26.70;22.58;;;5.00;99.90;;;;;;5054775;28;20360;-70
2022/04/02 09:14:54;;;;;;;25.55;20.08;;;5.00;99.90;;;;;;5059340;28;20430;-69
2022/04/02 09:18:02;;;;;;;20.67;17.70;;;5.20;99.90;;;;;;5053361;28;20049;-70
2022/04/02 09:20:45;;;;;;;20.58;18.38;;;5.30;99.90;;;;;;5025656;28;20127;-70
2022/04/02 09:23:12;;;;;;;33.28;27.95;;;5.20;99.90;;;;;;5043111;28;20471;-69
2022/04/02 09:25:59;;;;;;;27.25;22.02;;;5.20;99.90;;;;;;5050622;28;20029;-70
2022/04/02 09:28:45;;;;;;;34.92;29.05;;;5.40;99.90;;;;;;5053127;28;20177;-70
2022/04/02 09:31:21;;;;;;;27.63;23.23;;;5.50;99.90;;;;;;5049596;28;20028;-69
2022/04/02 09:34:22;;;;;;;50.85;36.75;;;5.60;99.90;;;;;;5059697;28;20047;-69
2022/04/02 09:37:10;;;;;;;22.08;18.95;;;5.90;99.90;;;;;;5046145;28;20036;-70
2022/04/02 09:40:09;;;;;;;19.80;15.57;;;6.10;99.90;;;;;;5051268;28;20682;-69
2022/04/02 09:42:43;;;;;;;20.23;16.77;;;6.30;99.90;;;;;;5059072;28;20033;-70
2022/04/02 09:45:16;;;;;;;21.23;17.40;;;6.40;99.90;;;;;;5053693;28;20079;-69
2022/04/02 09:47:51;;;;;;;32.40;25.33;;;6.40;99.90;;;;;;5058041;28;20071;-69
2022/04/02 09:50:22;;;;;;;21.10;17.77;;;6.40;99.90;;;;;;5048881;28;20052;-69
2022/04/02 09:53:23;;;;;;;17.33;15.43;;;6.20;99.90;;;;;;5055414;28;20094;-70
2022/04/02 09:56:09;;;;;;;23.50;17.02;;;6.20;99.90;;;;;;5049353;28;20029;-70
2022/04/02 09:58:37;;;;;;;17.77;15.88;;;6.40;99.90;;;;;;5058842;28;20052;-69
2022/04/02 10:01:05;;;;;;;18.92;15.68;;;6.30;99.90;;;;;;5054760;28;20111;-69
2022/04/02 10:03:49;;;;;;;27.55;15.20;;;6.20;99.90;;;;;;5054228;28;20041;-69
2022/04/02 10:06:20;;;;;;;23.50;16.30;;;6.10;99.90;;;;;;5053874;28;20040;-69
2022/04/02 10:09:02;;;;;;;25.95;15.38;;;5.90;99.90;;;;;;5051986;28;20033;-69
2022/04/02 10:11:30;;;;;;;18.48;14.93;;;5.90;99.90;;;;;;5052130;28;20048;-70
2022/04/02 10:14:00;;;;;;;18.02;15.48;;;5.90;99.90;;;;;;5059053;28;20029;-70
2022/04/02 10:16:27;;;;;;;16.27;14.32;;;6.00;99.90;;;;;;5053273;28;20037;-69
2022/04/02 10:18:54;;;;;;;23.50;19.52;;;6.00;99.90;;;;;;5050563;28;20072;-70
2022/04/02 10:21:21;;;;;;;22.48;17.13;;;6.10;99.90;;;;;;5047688;28;20032;-69
2022/04/02 10:24:22;;;;;;;18.73;14.70;;;6.00;99.90;;;;;;5049869;28;20068;-69
2022/04/02 10:26:54;;;;;;;18.58;15.40;;;6.00;99.90;;;;;;5056998;28;20045;-70
2022/04/02 10:29:58;;;;;;;17.45;14.13;;;5.80;99.90;;;;;;5055867;28;20040;-70
2022/04/02 10:32:44;;;;;;;16.73;14.55;;;5.70;99.90;;;;;;5052694;28;20134;-69
2022/04/02 10:35:13;;;;;;;16.33;13.63;;;5.60;99.90;;;;;;5055492;28;20048;-69
2022/04/02 10:37:43;;;;;;;17.33;13.00;;;5.50;99.90;;;;;;5051936;28;20048;-69
2022/04/02 10:40:16;;;;;;;14.48;11.93;;;5.50;99.90;;;;;;5055015;28;20420;-69
2022/04/02 10:42:49;;;;;;;17.23;13.38;;;5.50;99.90;;;;;;5051329;28;20040;-69
2022/04/02 10:45:18;;;;;;;17.15;14.10;;;5.50;99.90;;;;;;5057636;28;20107;-70
2022/04/02 10:48:06;;;;;;;16.88;14.32;;;5.50;99.90;;;;;;5049391;28;20048;-69
2022/04/02 10:50:33;;;;;;;18.55;13.95;;;5.60;99.90;;;;;;5053630;28;20107;-69
2022/04/02 10:53:02;;;;;;;24.88;13.43;;;5.70;99.90;;;;;;5035821;28;20581;-69
2022/04/02 10:55:28;;;;;;;32.72;13.15;;;5.70;99.90;;;;;;5046272;28;20907;-69
2022/04/02 10:57:59;;;;;;;22.13;16.60;;;5.70;99.90;;;;;;5051459;28;20048;-69
2022/04/02 11:00:27;;;;;;;15.05;10.55;;;5.70;99.90;;;;;;5049424;28;20097;-68
2022/04/02 11:03:03;;;;;;;89.05;58.42;;;5.80;99.90;;;;;;5052245;28;20046;-69
2022/04/02 11:05:37;;;;;;;23.02;18.63;;;5.80;99.90;;;;;;5052766;28;20036;-69
2022/04/02 11:08:12;;;;;;;18.50;13.98;;;6.00;99.90;;;;;;5059288;28;20029;-69
2022/04/02 11:10:38;;;;;;;32.38;13.00;;;6.00;99.90;;;;;;5051520;28;20790;-69
2022/04/02 11:13:08;;;;;;;18.27;13.20;;;5.90;99.90;;;;;;5054364;28;20037;-69
2022/04/02 11:15:41;;;;;;;28.48;13.63;;;5.90;99.90;;;;;;5050113;28;20393;-69
2022/04/02 11:18:17;;;;;;;21.60;12.93;;;5.80;99.90;;;;;;5053638;28;20783;-69
2022/04/02 11:20:43;;;;;;;19.13;14.88;;;5.70;99.90;;;;;;5051616;28;20106;-69
2022/04/02 11:23:33;;;;;;;59.15;45.78;;;5.70;99.90;;;;;;5051539;28;20720;-70
2022/04/02 11:26:04;;;;;;;15.43;13.02;;;5.70;99.90;;;;;;5055358;28;20124;-70
2022/04/02 11:28:44;;;;;;;14.07;11.27;;;5.90;99.90;;;;;;5051921;28;20554;-69
2022/04/02 11:31:13;;;;;;;15.77;10.48;;;5.80;99.90;;;;;;5040077;28;20074;-69
2022/04/02 11:33:51;;;;;;;17.63;12.32;;;5.80;99.90;;;;;;5056965;28;20098;-69
2022/04/02 11:36:22;;;;;;;23.73;12.68;;;5.70;99.90;;;;;;5061194;28;20048;-69
2022/04/02 11:38:58;;;;;;;28.15;12.57;;;5.70;99.90;;;;;;5055216;28;20041;-69
2022/04/02 11:41:41;;;;;;;31.58;12.85;;;5.70;99.90;;;;;;5057215;28;20052;-68
2022/04/02 11:44:12;;;;;;;18.92;12.05;;;5.70;99.90;;;;;;5054119;28;20521;-68
2022/04/02 11:46:59;;;;;;;18.70;15.15;;;5.70;99.90;;;;;;5048535;28;20052;-68
2022/04/02 11:49:29;;;;;;;16.23;11.70;;;5.70;99.90;;;;;;5053016;28;20043;-68
2022/04/02 11:52:06;;;;;;;13.65;10.98;;;5.80;99.90;;;;;;5056634;28;20040;-68
2022/04/02 11:54:56;;;;;;;15.10;11.98;;;5.90;99.90;;;;;;5055886;28;20476;-68
2022/04/02 11:57:22;;;;;;;12.48;10.25;;;6.00;99.90;;;;;;5059049;28;20374;-68
2022/04/02 11:59:56;;;;;;;13.73;10.68;;;6.00;99.90;;;;;;5057517;28;20052;-68
2022/04/02 12:02:42;;;;;;;15.18;9.82;;;5.80;99.90;;;;;;5055611;28;20033;-68
2022/04/02 12:05:10;;;;;;;10.90;8.60;;;5.70;99.90;;;;;;5053128;28;20051;-68
2022/04/02 12:07:42;;;;;;;15.57;8.52;;;5.70;99.90;;;;;;5053230;28;20037;-68
2022/04/02 12:10:21;;;;;;;11.23;8.93;;;5.60;99.90;;;;;;5051583;28;20099;-69
2022/04/02 12:12:48;;;;;;;12.70;9.75;;;5.60;99.90;;;;;;5056724;28;20074;-69
2022/04/02 12:15:15;;;;;;;18.10;14.18;;;5.90;99.90;;;;;;5051304;28;20086;-69
2022/04/02 12:17:47;;;;;;;19.77;15.35;;;5.90;99.90;;;;;;5054105;28;20050;-69
2022/04/02 12:20:37;;;;;;;11.23;7.95;;;6.10;99.90;;;;;;5051605;28;20084;-69
2022/04/02 12:23:12;;;;;;;10.23;8.18;;;6.20;99.90;;;;;;5055167;28;20070;-69
2022/04/02 12:25:39;;;;;;;12.75;8.57;;;6.30;99.90;;;;;;5052954;28;20045;-70
2022/04/02 12:28:19;;;;;;;11.18;8.00;;;6.30;99.90;;;;;;5052234;28;20036;-69
2022/04/02 12:30:48;;;;;;;13.27;10.80;;;6.30;99.90;;;;;;5057322;28;20387;-69
2022/04/02 12:33:25;;;;;;;9.27;7.20;;;6.30;99.90;;;;;;5053640;28;20498;-69
2022/04/02 12:36:10;;;;;;;6.38;5.60;;;6.30;99.90;;;;;;5054407;28;20103;-70
2022/04/02 12:38:38;;;;;;;7.40;5.63;;;6.20;99.90;;;;;;5047705;28;20052;-70
2022/04/02 12:41:17;;;;;;;5.20;4.30;;;6.20;99.90;;;;;;5052589;28;20037;-69
2022/04/02 12:43:47;;;;;;;5.63;4.30;;;6.30;99.90;;;;;;5055913;28;20047;-69
2022/04/02 12:46:26;;;;;;;6.20;3.45;;;6.30;99.90;;;;;;5050487;28;20490;-69
2022/04/02 12:48:53;;;;;;;3.83;3.22;;;6.40;99.90;;;;;;5050701;28;20118;-69
2022/04/02 12:51:20;;;;;;;6.18;4.07;;;6.40;99.90;;;;;;5052813;28;20048;-69
2022/04/02 12:53:47;;;;;;;5.00;4.50;;;6.30;99.90;;;;;;5052597;28;20037;-69
2022/04/02 12:56:23;;;;;;;6.30;4.22;;;6.20;99.90;;;;;;5050610;28;20033;-69
2022/04/02 12:58:50;;;;;;;8.68;4.65;;;6.30;99.90;;;;;;5058265;28;20046;-69